Time;durP1;ratioP1;P1;durP2;ratioP2;P2;SDS_P1;SDS_P2;PMS_P1;PMS_P2;Temp;Humidity;BMP_temperature;BMP_pressure;BME280_temperature;BME280_humidity;BME280_pressure;Samples;Min_cycle;Max_cycle;Signal;HPM_P1;HPM_P2
2024/01/20 00:01:22;;;;;;;37.30;20.55;;;;;;;0.34;100.00;102577.59;5282377;28;20028;-79
2024/01/20 00:03:53;;;;;;;37.92;19.73;;;;;;;0.25;100.00;102581.16;5281894;28;20023;-79
2024/01/20 00:06:25;;;;;;;35.65;20.63;;;;;;;0.28;100.00;102581.13;5281768;28;20032;-79
2024/01/20 00:08:57;;;;;;;36.25;19.35;;;;;;;0.35;100.00;102587.91;5279098;28;20036;-79
2024/01/20 00:11:29;;;;;;;34.97;19.67;;;;;;;0.45;100.00;102586.88;5282164;28;20024;-79
2024/01/20 00:14:01;;;;;;;35.50;18.98;;;;;;;0.45;100.00;102580.88;5278915;28;20032;-79
2024/01/20 00:16:33;;;;;;;39.88;20.27;;;;;;;0.45;100.00;102578.28;5281111;28;20028;-79
2024/01/20 00:19:05;;;;;;;36.15;20.80;;;;;;;0.44;100.00;102589.50;5281471;28;20040;-79
2024/01/20 00:21:39;;;;;;;34.78;19.77;;;;;;;0.45;100.00;102580.88;5280846;28;20029;-79
2024/01/20 00:24:11;;;;;;;39.17;20.38;;;;;;;0.52;100.00;102592.81;5283810;28;20035;-79
2024/01/20 00:26:43;;;;;;;37.63;20.33;;;;;;;0.47;100.00;102589.47;5281176;28;20384;-80
2024/01/20 00:29:15;;;;;;;35.92;19.17;;;;;;;0.51;100.00;102587.69;5278442;28;20032;-79
2024/01/20 00:31:47;;;;;;;31.58;18.73;;;;;;;0.53;100.00;102585.91;5281177;28;20025;-79
2024/01/20 00:34:19;;;;;;;33.20;19.85;;;;;;;0.51;100.00;102580.78;5278455;28;20040;-79
2024/01/20 00:36:51;;;;;;;38.47;19.40;;;;;;;0.55;100.00;102594.50;5283113;28;20516;-79
2024/01/20 00:39:23;;;;;;;33.05;18.63;;;;;;;0.56;100.00;102589.31;5281802;28;20158;-79
2024/01/20 00:41:55;;;;;;;33.47;18.85;;;;;;;0.45;100.00;102575.72;5282901;28;20127;-78
2024/01/20 00:44:27;;;;;;;37.17;20.30;;;;;;;0.53;100.00;102579.06;5280861;28;20115;-78
2024/01/20 00:46:59;;;;;;;35.38;19.40;;;;;;;0.47;100.00;102576.56;5282322;28;20130;-79
2024/01/20 00:49:30;;;;;;;33.30;18.05;;;;;;;0.50;100.00;102576.53;5280542;28;20111;-79
2024/01/20 00:52:03;;;;;;;33.72;18.55;;;;;;;0.54;100.00;102585.91;5280602;28;20024;-79
2024/01/20 00:54:35;;;;;;;39.75;21.23;;;;;;;0.54;100.00;102588.50;5278876;28;20044;-79
2024/01/20 00:57:06;;;;;;;35.05;19.10;;;;;;;0.47;100.00;102587.72;5281289;28;20535;-79
2024/01/20 00:59:38;;;;;;;32.78;18.30;;;;;;;0.48;100.00;102578.25;5279769;28;20050;-79
2024/01/20 01:02:11;;;;;;;35.40;18.77;;;;;;;0.51;100.00;102588.53;5281528;28;20024;-79
2024/01/20 01:04:43;;;;;;;36.17;20.08;;;;;;;0.46;100.00;102575.72;5280364;28;20032;-79
2024/01/20 01:07:15;;;;;;;32.97;18.50;;;;;;;0.54;100.00;102587.66;5281649;28;20035;-78
2024/01/20 01:09:48;;;;;;;35.45;19.13;;;;;;;0.44;100.00;102581.75;5279297;28;20036;-78
2024/01/20 01:12:20;;;;;;;34.67;19.40;;;;;;;0.46;100.00;102575.72;5279760;28;20028;-78
2024/01/20 01:14:52;;;;;;;33.55;18.92;;;;;;;0.41;100.00;102567.16;5280019;28;20044;-78
2024/01/20 01:17:24;;;;;;;32.45;17.55;;;;;;;0.47;100.00;102587.72;5280245;28;20362;-78
2024/01/20 01:19:56;;;;;;;34.70;19.20;;;;;;;0.46;100.00;102585.19;5280315;28;20059;-78
2024/01/20 01:22:28;;;;;;;31.77;18.75;;;;;;;0.41;100.00;102577.47;5281950;28;20385;-78
2024/01/20 01:25:00;;;;;;;30.75;17.55;;;;;;;0.43;100.00;102590.38;5281184;28;20032;-78
2024/01/20 01:27:32;;;;;;;33.35;18.42;;;;;;;0.36;100.00;102581.88;5282314;28;20043;-79
2024/01/20 01:30:05;;;;;;;33.22;18.05;;;;;;;0.41;100.00;102585.22;5282568;28;20709;-78
2024/01/20 01:32:37;;;;;;;32.22;18.88;;;;;;;0.40;100.00;102585.25;5283949;28;20020;-78
2024/01/20 01:35:09;;;;;;;29.63;17.73;;;;;;;0.40;100.00;102591.25;5283658;28;20028;-78
2024/01/20 01:37:41;;;;;;;30.60;17.20;;;;;;;0.39;100.00;102584.41;5285169;28;20028;-78
2024/01/20 01:40:13;;;;;;;31.38;16.77;;;;;;;0.40;100.00;102587.84;5286048;28;20040;-78
2024/01/20 01:42:47;;;;;;;30.98;17.63;;;;;;;0.48;100.00;102586.00;5284729;28;20024;-79
2024/01/20 01:45:19;;;;;;;34.67;18.58;;;;;;;0.40;100.00;102601.56;5290380;28;20037;-78
2024/01/20 01:47:53;;;;;;;32.17;16.90;;;;;;;0.44;100.00;102600.66;5286367;28;20147;-78
2024/01/20 01:50:25;;;;;;;29.85;17.83;;;;;;;0.38;100.00;102605.03;5283373;28;20020;-78
2024/01/20 01:52:58;;;;;;;32.25;17.58;;;;;;;0.34;100.00;102595.66;5285777;28;20036;-78
2024/01/20 01:55:31;;;;;;;32.33;18.33;;;;;;;0.42;100.00;102607.56;5287254;28;20052;-79
2024/01/20 01:58:05;;;;;;;31.55;17.75;;;;;;;0.41;100.00;102617.91;5287144;28;20028;-79
2024/01/20 02:00:37;;;;;;;;;;;;;;;0.85;100.00;102621.56;5288037;28;20833;-79
2024/01/20 02:03:09;;;;;;;26.98;16.20;;;;;;;0.37;100.00;102601.59;5287652;28;19958;-78
2024/01/20 02:05:41;;;;;;;31.23;16.58;;;;;;;0.43;100.00;102622.16;5268141;28;20020;-78
2024/01/20 02:08:13;;;;;;;30.30;18.75;;;;;;;0.44;100.00;102626.44;5286188;28;20032;-78
2024/01/20 02:10:46;;;;;;;30.27;17.90;;;;;;;0.41;100.00;102628.22;5283307;28;20047;-78
2024/01/20 02:13:20;;;;;;;29.58;17.73;;;;;;;0.45;100.00;102629.88;5286573;28;20031;-78
2024/01/20 02:15:52;;;;;;;31.58;17.55;;;;;;;0.40;100.00;102627.34;5288738;28;20032;-78
2024/01/20 02:18:24;;;;;;;31.67;18.13;;;;;;;0.39;100.00;102617.06;5286624;28;20032;-78
2024/01/20 02:20:56;;;;;;;31.15;19.92;;;;;;;0.37;100.00;102622.25;5290451;28;20027;-78
2024/01/20 02:23:28;;;;;;;30.30;18.33;;;;;;;0.37;100.00;102629.13;5285276;28;20089;-78
2024/01/20 02:26:00;;;;;;;30.13;17.75;;;;;;;0.41;100.00;102626.47;5283222;28;20028;-79
2024/01/20 02:28:33;;;;;;;33.95;17.50;;;;;;;0.39;100.00;102630.81;5284064;28;20035;-78
2024/01/20 02:31:05;;;;;;;31.70;17.17;;;;;;;0.38;100.00;102638.56;5282646;28;20031;-78
2024/01/20 02:33:37;;;;;;;28.85;17.65;;;;;;;0.31;100.00;102630.06;5281938;28;20297;-78
2024/01/20 02:36:09;;;;;;;36.25;18.55;;;;;;;0.35;100.00;102639.47;5283030;28;20477;-78
2024/01/20 02:38:40;;;;;;;30.92;17.38;;;;;;;0.36;100.00;102637.75;5282576;28;20031;-78
2024/01/20 02:41:12;;;;;;;29.08;16.92;;;;;;;0.42;100.00;102640.25;5285931;28;20028;-78
2024/01/20 02:43:44;;;;;;;31.50;19.27;;;;;;;0.44;100.00;102641.91;5285066;28;20024;-78
2024/01/20 02:46:16;;;;;;;32.40;19.20;;;;;;;0.44;100.00;102639.34;5284600;28;20396;-78
2024/01/20 02:48:48;;;;;;;31.55;18.63;;;;;;;0.45;100.00;102625.56;5282501;28;20024;-78
2024/01/20 02:51:20;;;;;;;31.88;18.17;;;;;;;0.41;100.00;102621.31;5284463;28;20044;-78
2024/01/20 02:53:52;;;;;;;27.20;16.35;;;;;;;0.48;100.00;102629.84;5279665;28;20048;-78
2024/01/20 02:56:24;;;;;;;32.30;18.17;;;;;;;0.37;100.00;102618.81;5283070;28;20648;-78
2024/01/20 02:58:56;;;;;;;34.50;17.95;;;;;;;0.35;100.00;102626.59;5281663;28;20043;-78
2024/01/20 03:01:28;;;;;;;29.42;16.52;;;;;;;0.34;100.00;102631.75;5282879;28;20028;-78
2024/01/20 03:04:00;;;;;;;30.98;17.83;;;;;;;0.40;100.00;102636.81;5283902;28;20031;-78
2024/01/20 03:06:32;;;;;;;29.20;17.20;;;;;;;0.42;100.00;102641.09;5284092;28;20033;-78
2024/01/20 03:09:04;;;;;;;32.50;17.37;;;;;;;0.41;100.00;102654.00;5283863;28;20036;-78
2024/01/20 03:11:36;;;;;;;29.45;17.58;;;;;;;0.39;100.00;102643.72;5285994;28;20051;-78
2024/01/20 03:14:11;;;;;;;32.92;18.48;;;;;;;0.47;100.00;102659.94;5286017;28;20552;-78
2024/01/20 03:16:43;;;;;;;29.80;17.40;;;;;;;0.43;100.00;102663.41;5285709;28;20031;-78
2024/01/20 03:19:15;;;;;;;31.77;18.10;;;;;;;0.44;100.00;102659.97;5284200;28;20111;-78
2024/01/20 03:21:47;;;;;;;29.23;18.75;;;;;;;0.41;100.00;102659.16;5280282;28;20042;-78
2024/01/20 03:24:19;;;;;;;32.75;17.77;;;;;;;0.45;100.00;102658.22;5282444;28;20043;-78
2024/01/20 03:26:54;;;;;;;28.05;17.30;;;;;;;0.44;100.00;102666.84;5280523;28;20040;-78
2024/01/20 03:29:26;;;;;;;31.08;17.20;;;;;;;0.47;100.00;102659.06;5283512;28;20639;-78
2024/01/20 03:31:58;;;;;;;28.10;17.38;;;;;;;0.40;100.00;102647.97;5284408;28;20044;-78
2024/01/20 03:34:30;;;;;;;31.23;16.30;;;;;;;0.51;100.00;102660.72;5256649;28;20047;-78
2024/01/20 03:37:02;;;;;;;29.48;17.38;;;;;;;0.50;100.00;102658.19;5264923;28;20073;-78
2024/01/20 03:39:34;;;;;;;30.63;17.17;;;;;;;0.47;100.00;102653.91;5282378;28;20131;-78
2024/01/20 03:42:06;;;;;;;30.95;18.45;;;;;;;0.47;100.00;102647.03;5284127;28;20032;-78
2024/01/20 03:44:37;;;;;;;30.23;17.58;;;;;;;0.55;100.00;102657.25;5282839;28;20025;-78
2024/01/20 03:47:09;;;;;;;28.55;17.35;;;;;;;0.56;100.00;102660.66;5280966;28;20035;-78
2024/01/20 03:49:41;;;;;;;26.90;15.75;;;;;;;0.55;100.00;102662.41;5281705;28;20508;-78
2024/01/20 03:52:13;;;;;;;30.88;17.30;;;;;;;0.50;100.00;102656.47;5276189;28;20095;-78
2024/01/20 03:54:45;;;;;;;27.55;16.15;;;;;;;0.64;100.00;102663.97;5281517;28;20045;-77
2024/01/20 03:57:17;;;;;;;27.85;16.67;;;;;;;0.58;100.00;102657.19;5280733;28;20032;-78
2024/01/20 03:59:49;;;;;;;27.02;16.60;;;;;;;0.51;100.00;102650.41;5285756;28;20047;-77
2024/01/20 04:02:21;;;;;;;29.70;17.20;;;;;;;0.53;100.00;102655.53;5282523;28;20027;-77
2024/01/20 04:04:53;;;;;;;28.35;17.25;;;;;;;0.48;100.00;102655.63;5281084;28;20016;-77
2024/01/20 04:07:25;;;;;;;30.33;17.48;;;;;;;0.47;100.00;102667.66;5282118;28;20381;-78
2024/01/20 04:09:57;;;;;;;26.02;16.20;;;;;;;0.50;100.00;102653.88;5284438;28;20036;-78
2024/01/20 04:12:29;;;;;;;30.83;17.95;;;;;;;0.50;100.00;102659.03;5282833;28;20034;-78
2024/01/20 04:15:00;;;;;;;32.13;17.25;;;;;;;0.47;100.00;102652.19;5281557;28;20115;-77
2024/01/20 04:17:33;;;;;;;27.23;16.65;;;;;;;0.51;100.00;102665.91;5281893;28;20467;-78
2024/01/20 04:20:06;;;;;;;27.35;15.88;;;;;;;0.51;100.00;102654.72;5281290;28;20043;-78
2024/01/20 04:22:37;;;;;;;26.90;16.08;;;;;;;0.46;100.00;102662.53;5284101;28;20028;-78
2024/01/20 04:25:10;;;;;;;28.88;18.15;;;;;;;0.44;100.00;102664.28;5281401;28;20028;-78
2024/01/20 04:27:41;;;;;;;30.77;18.17;;;;;;;0.46;100.00;102672.84;5282652;28;20024;-78
2024/01/20 04:30:13;;;;;;;27.70;17.48;;;;;;;0.44;100.00;102677.16;5282780;28;20640;-78
2024/01/20 04:32:45;;;;;;;28.67;17.35;;;;;;;0.39;100.00;102682.38;5281868;28;20028;-78
2024/01/20 04:35:17;;;;;;;26.98;16.90;;;;;;;0.47;100.00;102685.72;5282543;28;20032;-78
2024/01/20 04:37:49;;;;;;;31.27;18.10;;;;;;;0.40;100.00;102688.38;5280741;28;20044;-78
2024/01/20 04:40:21;;;;;;;32.80;17.48;;;;;;;0.36;100.00;102685.00;5283322;28;20401;-78
2024/01/20 04:42:53;;;;;;;29.98;18.08;;;;;;;0.41;100.00;102690.09;5281779;28;20035;-78
2024/01/20 04:45:25;;;;;;;30.98;18.05;;;;;;;0.38;100.00;102675.53;5280432;28;20036;-78
2024/01/20 04:47:57;;;;;;;32.15;17.05;;;;;;;0.43;100.00;102680.63;5280541;28;20042;-78
2024/01/20 04:50:28;;;;;;;26.60;16.30;;;;;;;0.45;100.00;102696.91;5282931;28;20472;-78
2024/01/20 04:53:00;;;;;;;31.55;17.00;;;;;;;0.36;100.00;102705.63;5278838;28;20036;-78
2024/01/20 04:55:32;;;;;;;30.05;17.08;;;;;;;0.35;100.00;102697.91;5279981;28;20040;-78
2024/01/20 04:58:04;;;;;;;26.13;15.75;;;;;;;0.32;100.00;102685.91;5282121;28;20495;-78
2024/01/20 05:00:36;;;;;;;29.05;17.15;;;;;;;0.28;100.00;102676.50;5283296;28;20024;-79
2024/01/20 05:03:08;;;;;;;27.00;16.75;;;;;;;0.40;100.00;102686.66;5289738;28;20054;-79
2024/01/20 05:05:40;;;;;;;28.65;16.48;;;;;;;0.38;100.00;102693.56;5289549;28;20039;-79
2024/01/20 05:08:12;;;;;;;29.80;17.15;;;;;;;0.38;100.00;102697.84;5287630;28;20026;-79
2024/01/20 05:10:44;;;;;;;28.58;17.02;;;;;;;0.39;100.00;102694.44;5288714;28;20028;-79
2024/01/20 05:13:16;;;;;;;25.63;16.83;;;;;;;0.36;100.00;102689.31;5270297;28;20707;-79
2024/01/20 05:15:47;;;;;;;26.90;15.25;;;;;;;0.35;100.00;102685.03;5288559;28;20070;-79
2024/01/20 05:18:20;;;;;;;28.63;16.90;;;;;;;0.41;100.00;102696.09;5285044;28;20035;-79
2024/01/20 05:20:52;;;;;;;27.10;15.47;;;;;;;0.46;100.00;102694.34;5286305;28;20482;-79
2024/01/20 05:23:24;;;;;;;27.17;16.15;;;;;;;0.38;100.00;102687.53;5283903;28;20030;-79
2024/01/20 05:25:56;;;;;;;25.67;16.42;;;;;;;0.46;100.00;102704.66;5259472;28;20040;-79
2024/01/20 05:28:28;;;;;;;27.63;16.40;;;;;;;0.35;100.00;102696.19;5283554;28;20030;-79
2024/01/20 05:30:59;;;;;;;26.52;16.13;;;;;;;0.42;100.00;102696.97;5286342;28;20036;-78
2024/01/20 05:33:31;;;;;;;26.48;15.13;;;;;;;0.42;100.00;102705.56;5284947;28;20508;-78
2024/01/20 05:36:04;;;;;;;25.58;15.90;;;;;;;0.36;100.00;102702.19;5283379;28;20035;-79
2024/01/20 05:38:35;;;;;;;25.08;16.23;;;;;;;0.37;100.00;102696.16;5286199;28;20504;-79
2024/01/20 05:41:08;;;;;;;25.58;15.77;;;;;;;0.37;100.00;102703.88;5283321;28;20029;-79
2024/01/20 05:43:40;;;;;;;26.58;17.70;;;;;;;0.36;100.00;102704.78;5283599;28;20043;-79
2024/01/20 05:46:11;;;;;;;26.88;16.38;;;;;;;0.32;100.00;102705.69;5283417;28;20032;-79
2024/01/20 05:48:43;;;;;;;25.95;16.35;;;;;;;0.34;100.00;102709.06;5284495;28;20404;-79
2024/01/20 05:51:15;;;;;;;31.10;17.80;;;;;;;0.35;100.00;102708.22;5284344;28;20036;-79
2024/01/20 05:53:47;;;;;;;24.50;15.63;;;;;;;0.31;100.00;102702.25;5283341;28;20032;-78
2024/01/20 05:56:21;;;;;;;24.25;15.10;;;;;;;0.29;100.00;102716.88;5282159;28;20047;-78
2024/01/20 05:58:53;;;;;;;26.17;16.15;;;;;;;0.24;100.00;102711.78;5258830;28;20051;-79
2024/01/20 06:01:25;;;;;;;25.95;16.30;;;;;;;0.27;100.00;102722.94;5284608;28;20416;-79
2024/01/20 06:03:57;;;;;;;24.13;15.70;;;;;;;0.28;100.00;102720.34;5282083;28;20130;-78
2024/01/20 06:06:28;;;;;;;21.95;15.15;;;;;;;0.28;100.00;102719.47;5282885;28;20571;-79
2024/01/20 06:09:00;;;;;;;25.02;16.48;;;;;;;0.32;100.00;102731.47;5282495;28;20050;-78
2024/01/20 06:11:32;;;;;;;22.67;15.43;;;;;;;0.32;100.00;102724.56;5283956;28;20453;-79
2024/01/20 06:14:04;;;;;;;25.65;15.02;;;;;;;0.35;100.00;102723.69;5288580;28;21348;-78
2024/01/20 06:16:38;;;;;;;26.30;16.42;;;;;;;0.31;100.00;102728.03;5288030;28;20020;-78
2024/01/20 06:19:10;;;;;;;20.75;14.43;;;;;;;0.34;100.00;102727.13;5286360;28;20032;-78
2024/01/20 06:21:42;;;;;;;26.33;15.80;;;;;;;0.34;100.00;102732.28;5289096;28;20024;-78
2024/01/20 06:24:14;;;;;;;27.85;17.33;;;;;;;0.32;100.00;102732.31;5288088;28;20051;-78
2024/01/20 06:26:46;;;;;;;24.52;16.17;;;;;;;0.26;100.00;102719.47;5288380;28;20027;-78
2024/01/20 06:29:18;;;;;;;23.10;15.10;;;;;;;0.30;100.00;102743.50;5286087;28;20036;-78
2024/01/20 06:31:50;;;;;;;24.73;15.43;;;;;;;0.30;100.00;102743.50;5286939;28;20031;-79
2024/01/20 06:34:22;;;;;;;25.30;16.30;;;;;;;0.29;100.00;102746.97;5288291;28;20040;-79
2024/01/20 06:36:54;;;;;;;25.23;15.90;;;;;;;0.29;100.00;102740.06;5288621;28;20040;-79
2024/01/20 06:39:26;;;;;;;21.95;15.38;;;;;;;0.22;100.00;102728.13;5286613;28;20028;-79
2024/01/20 06:41:58;;;;;;;28.58;17.27;;;;;;;0.28;100.00;102747.84;5289128;28;20043;-79
2024/01/20 06:44:30;;;;;;;23.60;14.80;;;;;;;0.29;100.00;102752.13;5285970;28;20047;-79
2024/01/20 06:47:02;;;;;;;23.17;14.68;;;;;;;0.26;100.00;102757.31;5286015;28;20404;-79
2024/01/20 06:49:38;;;;;;;23.60;14.52;;;;;;;0.33;100.00;102751.22;5286752;28;20025;-79
2024/01/20 06:52:10;;;;;;;21.27;15.02;;;;;;;0.23;100.00;102763.38;5284836;28;20028;-78
2024/01/20 06:54:42;;;;;;;23.40;15.18;;;;;;;0.23;100.00;102778.81;5286938;28;20040;-79
2024/01/20 06:57:14;;;;;;;24.25;16.05;;;;;;;0.17;100.00;102769.41;5285478;28;20090;-78
2024/01/20 06:59:45;;;;;;;23.58;15.48;;;;;;;0.15;100.00;102768.59;5286454;28;20051;-78
2024/01/20 07:02:17;;;;;;;20.42;14.57;;;;;;;0.14;100.00;102759.13;5284183;28;20028;-78
2024/01/20 07:04:49;;;;;;;22.20;14.75;;;;;;;0.23;100.00;102771.94;5277927;28;20198;-78
2024/01/20 07:07:21;;;;;;;21.48;14.65;;;;;;;0.21;100.00;102777.97;5278061;28;20041;-77
2024/01/20 07:09:53;;;;;;;25.42;16.00;;;;;;;0.22;100.00;102777.09;5280310;28;20020;-77
2024/01/20 07:12:25;;;;;;;20.48;15.15;;;;;;;0.24;100.00;102768.50;5279596;28;20039;-77
2024/01/20 07:14:57;;;;;;;21.70;15.32;;;;;;;0.23;100.00;102778.81;5278886;28;20278;-77
2024/01/20 07:17:29;;;;;;;23.73;15.57;;;;;;;0.18;100.00;102771.13;5279622;28;20039;-76
2024/01/20 07:20:01;;;;;;;23.92;15.80;;;;;;;0.18;100.00;102773.69;5280168;28;20032;-77
2024/01/20 07:22:33;;;;;;;23.95;15.70;;;;;;;0.22;100.00;102777.09;5279455;28;20136;-77
2024/01/20 07:25:05;;;;;;;23.45;15.60;;;;;;;0.24;100.00;102775.38;5278382;28;20020;-77
2024/01/20 07:27:37;;;;;;;25.23;15.75;;;;;;;0.25;100.00;102779.66;5279722;28;20039;-76
2024/01/20 07:30:09;;;;;;;23.30;15.63;;;;;;;0.23;100.00;102777.09;5280893;28;20027;-77
2024/01/20 07:32:41;;;;;;;27.02;16.38;;;;;;;0.24;100.00;102773.66;5277886;28;20055;-77
2024/01/20 07:35:13;;;;;;;25.27;16.17;;;;;;;0.22;100.00;102767.63;5280195;28;20659;-76
2024/01/20 07:37:44;;;;;;;24.48;17.67;;;;;;;0.21;100.00;102773.66;5280202;28;20235;-76
2024/01/20 07:40:17;;;;;;;23.45;15.55;;;;;;;0.19;100.00;102775.44;5278812;28;20028;-77
2024/01/20 07:42:48;;;;;;;22.73;16.08;;;;;;;0.16;100.00;102780.63;5281381;28;20040;-76
2024/01/20 07:45:21;;;;;;;24.15;16.10;;;;;;;0.16;100.00;102779.75;5282691;28;20072;-76
2024/01/20 07:47:53;;;;;;;25.13;16.98;;;;;;;0.18;100.00;102781.44;5279842;28;20032;-77
2024/01/20 07:50:25;;;;;;;23.10;16.45;;;;;;;0.21;100.00;102780.56;5282649;28;20469;-76
2024/01/20 07:52:57;;;;;;;24.17;16.10;;;;;;;0.20;100.00;102782.28;5280176;28;20469;-77
2024/01/20 07:55:29;;;;;;;25.83;15.55;;;;;;;-0.03;100.00;102750.75;5283168;28;20128;-77
2024/01/20 07:58:01;;;;;;;24.77;16.13;;;;;;;0.20;100.00;102800.31;5283025;28;20024;-77
2024/01/20 08:00:33;;;;;;;26.45;16.02;;;;;;;0.22;100.00;102790.00;5280998;28;20032;-77
2024/01/20 08:03:05;;;;;;;27.00;17.17;;;;;;;0.22;100.00;102790.84;5283630;28;20477;-77
2024/01/20 08:05:37;;;;;;;23.92;16.75;;;;;;;0.30;100.00;102801.06;5279776;28;20039;-78
2024/01/20 08:08:09;;;;;;;24.95;17.27;;;;;;;0.28;100.00;102804.56;5281712;28;20031;-78
2024/01/20 08:10:41;;;;;;;26.85;16.95;;;;;;;0.29;100.00;102793.38;5279708;28;20035;-78
2024/01/20 08:13:13;;;;;;;25.83;17.35;;;;;;;0.31;100.00;102796.78;5281789;28;20028;-77
2024/01/20 08:15:44;;;;;;;23.60;16.65;;;;;;;0.31;100.00;102805.38;5280643;28;20463;-78
2024/01/20 08:18:16;;;;;;;23.02;16.10;;;;;;;0.26;100.00;102806.28;5278161;28;20461;-77
2024/01/20 08:20:48;;;;;;;23.50;16.30;;;;;;;0.22;100.00;102802.88;5281882;28;20117;-77
2024/01/20 08:23:20;;;;;;;27.58;17.25;;;;;;;0.24;100.00;102804.56;5281295;28;20027;-77
2024/01/20 08:25:52;;;;;;;24.48;16.92;;;;;;;0.32;100.00;102806.22;5281624;28;20039;-77
2024/01/20 08:28:24;;;;;;;25.83;16.48;;;;;;;0.18;100.00;102796.91;5279813;28;20036;-77
2024/01/20 08:30:56;;;;;;;24.00;16.02;;;;;;;0.21;100.00;102806.34;5280419;28;20039;-77
2024/01/20 08:33:28;;;;;;;25.45;16.33;;;;;;;0.30;100.00;102816.53;5282473;28;20119;-77
2024/01/20 08:36:00;;;;;;;27.42;16.65;;;;;;;0.32;100.00;102819.97;5280305;28;20059;-78
2024/01/20 08:38:32;;;;;;;25.05;16.95;;;;;;;0.31;100.00;102815.69;5284452;28;20027;-78
2024/01/20 08:41:09;;;;;;;26.48;16.88;;;;;;;0.36;100.00;102805.31;5284187;28;20065;-78
2024/01/20 08:43:41;;;;;;;25.90;17.25;;;;;;;0.41;100.00;102825.00;5287130;28;20036;-78
2024/01/20 08:46:13;;;;;;;24.77;16.27;;;;;;;0.44;100.00;102824.97;5285876;28;20031;-78
2024/01/20 08:48:45;;;;;;;24.05;16.17;;;;;;;0.45;100.00;102828.41;5286347;28;20028;-78
2024/01/20 08:51:17;;;;;;;25.58;16.85;;;;;;;0.32;100.00;102824.28;5286783;28;20040;-78
2024/01/20 08:53:49;;;;;;;25.48;16.85;;;;;;;0.43;100.00;102828.44;5287044;28;20050;-78
2024/01/20 08:56:21;;;;;;;25.75;15.45;;;;;;;0.54;100.00;102828.34;5260757;28;20036;-79
2024/01/20 08:58:53;;;;;;;23.90;16.90;;;;;;;0.54;100.00;102828.34;5261369;28;20048;-78
2024/01/20 09:01:25;;;;;;;22.77;15.85;;;;;;;0.48;100.00;102828.38;5284388;28;20029;-78
2024/01/20 09:03:57;;;;;;;21.17;14.55;;;;;;;0.51;100.00;102822.34;5286277;28;20498;-78
2024/01/20 09:06:28;;;;;;;21.48;15.50;;;;;;;0.55;100.00;102824.88;5285063;28;20024;-78
2024/01/20 09:09:01;;;;;;;21.83;14.50;;;;;;;0.56;100.00;102828.31;5261952;28;20047;-78
2024/01/20 09:11:33;;;;;;;22.73;16.25;;;;;;;0.61;100.00;102832.56;5285072;28;20035;-78
2024/01/20 09:14:05;;;;;;;22.90;15.40;;;;;;;0.60;100.00;102835.97;5285738;28;20474;-79
2024/01/20 09:16:37;;;;;;;30.40;16.58;;;;;;;0.60;100.00;102835.97;5281653;28;20047;-77
2024/01/20 09:19:09;;;;;;;21.70;15.18;;;;;;;0.63;100.00;102835.97;5283508;28;20366;-79
2024/01/20 09:21:45;;;;;;;20.48;13.90;;;;;;;0.68;100.00;102841.94;5283826;28;20043;-78
2024/01/20 09:24:16;;;;;;;22.77;15.30;;;;;;;0.62;100.00;102844.56;5284390;28;20031;-79
2024/01/20 09:26:48;;;;;;;24.65;16.17;;;;;;;0.61;100.00;102842.88;5280731;28;20038;-78
2024/01/20 09:29:20;;;;;;;24.55;16.50;;;;;;;0.61;100.00;102853.19;5285397;28;20036;-79
2024/01/20 09:31:52;;;;;;;21.92;16.60;;;;;;;0.66;100.00;102847.97;5283588;28;20449;-79
2024/01/20 09:34:24;;;;;;;22.42;15.20;;;;;;;0.69;100.00;102850.53;5285222;28;20726;-78
2024/01/20 09:36:56;;;;;;;21.17;14.95;;;;;;;0.59;100.00;102842.03;5282368;28;20035;-78
2024/01/20 09:39:28;;;;;;;23.10;15.85;;;;;;;0.57;100.00;102832.59;5282011;28;20300;-78
2024/01/20 09:42:00;;;;;;;22.85;15.05;;;;;;;0.71;100.00;102851.34;5285431;28;20508;-78
2024/01/20 09:44:32;;;;;;;21.17;14.52;;;;;;;0.76;100.00;102851.28;5283077;28;20035;-78
2024/01/20 09:47:08;;;;;;;21.98;14.70;;;;;;;0.73;100.00;102847.88;5282536;28;20028;-78
2024/01/20 09:49:40;;;;;;;23.80;15.38;;;;;;;0.72;100.00;102865.97;5283621;28;20032;-78
2024/01/20 09:52:27;;;;;;;20.25;15.10;;;;;;;0.83;100.00;102866.69;5283894;28;20031;-78
2024/01/20 09:55:16;;;;;;;23.00;14.65;;;;;;;0.90;100.00;102865.72;5282304;28;20056;-79
2024/01/20 09:57:50;;;;;;;18.98;14.80;;;;;;;0.93;100.00;102870.00;5282267;28;20050;-78
2024/01/20 10:00:23;;;;;;;21.33;13.85;;;;;;;0.98;100.00;102863.06;5280894;28;20032;-77
2024/01/20 10:02:56;;;;;;;23.70;16.88;;;;;;;0.91;100.00;102870.03;5282949;28;20055;-77
2024/01/20 10:05:28;;;;;;;26.93;17.47;;;;;;;0.94;100.00;102871.72;5280658;28;20047;-77
2024/01/20 10:08:01;;;;;;;24.55;15.63;;;;;;;1.00;100.00;102871.66;5281206;28;20286;-77
2024/01/20 10:10:34;;;;;;;23.17;15.80;;;;;;;0.93;100.00;102876.03;5282488;28;20386;-77
2024/01/20 10:13:06;;;;;;;25.27;16.17;;;;;;;0.94;100.00;102879.47;5283945;28;20094;-77
2024/01/20 10:15:38;;;;;;;22.38;15.88;;;;;;;0.99;100.00;102879.44;5281921;28;20394;-77
2024/01/20 10:18:12;;;;;;;23.92;15.07;;;;;;;1.01;100.00;102869.91;5279830;28;20030;-76
2024/01/20 10:20:44;;;;;;;23.45;15.65;;;;;;;0.91;100.00;102872.63;5282051;28;20031;-77
2024/01/20 10:23:17;;;;;;;22.77;14.82;;;;;;;0.94;100.00;102877.72;5256759;28;20718;-76
2024/01/20 10:25:59;;;;;;;22.33;15.15;;;;;;;1.10;100.00;102869.78;5284844;28;20035;-78
2024/01/20 10:28:32;;;;;;;22.60;15.38;;;;;;;1.07;100.00;102868.13;5281538;28;20036;-76
2024/01/20 10:31:10;;;;;;;19.98;13.93;;;;;;;1.20;100.00;102869.66;5284829;28;20508;-78
2024/01/20 10:33:42;;;;;;;19.83;14.25;;;;;;;1.16;100.00;102867.16;5286230;28;20043;-78
2024/01/20 10:36:17;;;;;;;19.73;14.55;;;;;;;1.22;100.00;102856.75;5286250;28;20595;-78
2024/01/20 10:38:52;;;;;;;23.20;14.73;;;;;;;1.12;100.00;102856.00;5278181;28;20044;-77
2024/01/20 10:41:24;;;;;;;21.85;13.77;;;;;;;1.10;100.00;102857.75;5280449;28;20032;-77
2024/01/20 10:44:04;;;;;;;21.95;14.75;;;;;;;1.30;100.00;102852.31;5281044;28;20032;-77
2024/01/20 10:46:39;;;;;;;20.33;12.93;;;;;;;1.34;100.00;102855.72;5283035;28;20038;-77
2024/01/20 10:49:17;;;;;;;20.55;12.95;;;;;;;1.39;100.00;102859.94;5279738;28;20043;-77
2024/01/20 10:51:50;;;;;;;18.98;13.85;;;;;;;1.18;100.00;102866.25;5282469;28;20036;-77
2024/01/20 10:54:22;;;;;;;17.98;12.95;;;;;;;1.17;100.00;102859.38;5282321;28;20515;-77
2024/01/20 11:00:23;;;;;;;20.05;13.40;;;;;;;1.11;100.00;102856.03;5286425;22;20510;-74
2024/01/20 11:02:55;;;;;;;19.57;13.30;;;;;;;1.14;100.00;102853.41;5275935;28;20044;-74
2024/01/20 11:05:27;;;;;;;19.58;13.90;;;;;;;1.24;100.00;102856.72;5273388;28;20041;-74
2024/01/20 11:08:07;;;;;;;19.05;12.88;;;;;;;1.45;100.00;102861.59;5276618;28;20029;-74
2024/01/20 11:10:40;;;;;;;18.95;12.35;;;;;;;1.52;100.00;102860.63;5260494;28;20028;-75
2024/01/20 11:13:15;;;;;;;21.27;13.80;;;;;;;1.68;100.00;102862.09;5258050;28;20041;-74
2024/01/20 11:15:51;;;;;;;18.92;13.82;;;;;;;1.75;100.00;102856.84;5270888;28;20020;-74
2024/01/20 11:18:23;;;;;;;20.40;13.10;;;;;;;1.68;100.00;102848.34;5260904;28;20466;-75
2024/01/20 11:21:00;;;;;;;17.55;13.02;;;;;;;1.74;100.00;102847.38;5257926;28;20045;-74
2024/01/20 11:23:32;;;;;;;19.05;12.73;;;;;;;1.66;100.00;102848.34;5253819;28;20041;-75
2024/01/20 11:26:12;;;;;;;20.48;13.32;;;;;;;1.73;100.00;102845.66;5264682;28;20037;-75
2024/01/20 11:28:44;;;;;;;21.67;14.48;;;;;;;1.59;100.00;102845.88;5257503;28;20471;-74
2024/01/20 11:31:18;;;;;;;18.90;14.27;;;;;;;1.51;100.00;102835.66;5257336;28;20039;-74
2024/01/20 11:33:50;;;;;;;21.70;13.43;;;;;;;1.57;100.00;102840.75;5260319;28;20482;-74
2024/01/20 11:36:22;;;;;;;18.80;12.98;;;;;;;1.54;100.00;102833.03;5258672;28;20488;-74